Terminal Aerodrome Forecast
Issued by NWS

Home | Current Version | Previous Version | Text Only | Print | Product List | Glossary On
Versions: 1 2 3 4 5 6 7 8 9 10 11 12 13 14 15 16 17 18 19 20 21 22 23 24 25 26 27 28
721
FTUS41 KBUF 261120
TAFIAG
TAF
KIAG 261120Z 2612/2712 31011KT P6SM -RA SCT013 OVC050
     FM261300 27012G18KT P6SM BKN030
     FM261500 27012G20KT P6SM BKN035
     FM261700 27011KT P6SM SCT040
     FM261900 26011KT P6SM FEW250
     FM270500 19005KT P6SM SCT200=

USA.gov is the U.S. government's official web portal to all federal, state and local government web resources and services.